Time;durP1;ratioP1;P1;durP2;ratioP2;P2;SDS_P1;SDS_P2;PMS_P1;PMS_P2;Temp;Humidity;BMP_temperature;BMP_pressure;BME280_temperature;BME280_humidity;BME280_pressure;Samples;Min_cycle;Max_cycle;Signal;HPM_P1;HPM_P2
2022/01/18 00:00:24;;;;;;;15.00;11.67;;;3.60;99.90;;;;;;4998361;28;20188;-90
2022/01/18 00:02:49;;;;;;;15.00;11.17;;;3.60;99.90;;;;;;4998140;28;20176;-89
2022/01/18 00:05:17;;;;;;;14.33;12.10;;;3.70;99.90;;;;;;4997897;28;20215;-87
2022/01/18 00:07:45;;;;;;;14.77;12.07;;;3.70;99.90;;;;;;4998214;28;20204;-86
2022/01/18 00:10:11;;;;;;;16.30;11.80;;;3.60;99.90;;;;;;4997999;28;20204;-88
2022/01/18 00:20:41;;;;;;;14.53;12.30;;;3.80;99.90;;;;;;5015935;28;20537;-89
2022/01/18 00:23:08;;;;;;;15.77;12.93;;;4.00;99.90;;;;;;4998334;28;20172;-88
2022/01/18 00:25:36;;;;;;;14.40;12.43;;;3.80;99.90;;;;;;4998163;28;20172;-88
2022/01/18 00:28:03;;;;;;;14.60;12.73;;;3.70;99.90;;;;;;4997678;28;20228;-90
2022/01/18 00:36:03;;;;;;;15.97;12.43;;;3.80;99.90;;;;;;4977557;28;20188;-88
2022/01/18 00:38:32;;;;;;;14.73;12.43;;;3.70;99.90;;;;;;4997530;28;20176;-88
2022/01/18 00:40:58;;;;;;;13.63;12.17;;;3.70;99.90;;;;;;4997137;28;20173;-87
2022/01/18 00:43:24;;;;;;;14.90;12.17;;;3.80;99.90;;;;;;4997308;28;20264;-87
2022/01/18 00:45:50;;;;;;;13.47;11.67;;;4.60;99.90;;;;;;4997574;28;20176;-87
2022/01/18 00:48:19;;;;;;;15.67;11.67;;;3.70;99.90;;;;;;5015097;28;20498;-87
2022/01/18 00:50:45;;;;;;;15.57;12.50;;;3.70;99.90;;;;;;4997698;28;20210;-90
2022/01/18 00:53:15;;;;;;;14.03;11.97;;;3.80;99.90;;;;;;4997595;28;20629;-89
2022/01/18 00:55:52;;;;;;;17.87;13.57;;;3.70;99.90;;;;;;4996916;28;20191;-89
2022/01/18 00:58:17;;;;;;;15.27;12.77;;;3.70;99.90;;;;;;4987316;28;20177;-90
2022/01/18 01:00:43;;;;;;;15.77;12.43;;;3.60;99.90;;;;;;4995165;28;20196;-90
2022/01/18 01:03:08;;;;;;;15.20;12.23;;;4.50;99.90;;;;;;4997447;28;20207;-87
2022/01/18 01:05:34;;;;;;;16.07;12.67;;;3.70;99.90;;;;;;4988959;28;20180;-88
2022/01/18 01:08:01;;;;;;;16.43;12.83;;;3.80;99.90;;;;;;4996928;28;20171;-89
2022/01/18 01:10:28;;;;;;;15.03;12.90;;;4.10;99.90;;;;;;4997305;28;20768;-88
2022/01/18 01:12:55;;;;;;;14.27;12.47;;;3.80;99.90;;;;;;4996885;28;20172;-88
2022/01/18 01:15:23;;;;;;;15.33;13.00;;;3.80;99.90;;;;;;4996402;28;20183;-87
2022/01/18 01:18:09;;;;;;;16.27;12.93;;;4.30;99.90;;;;;;4996466;28;20172;-88
2022/01/18 01:34:39;;;;;;;14.57;12.43;;;4.40;99.90;;;;;;4933847;29;20320;-86
2022/01/18 01:45:25;;;;;;;14.87;12.20;;;5.10;99.90;;;;;;4877245;29;20554;-88
2022/01/18 01:47:52;;;;;;;14.43;11.77;;;5.00;99.90;;;;;;4877452;29;20630;-89
2022/01/18 01:50:23;;;;;;;13.23;11.77;;;4.00;99.90;;;;;;4876291;29;20288;-87
2022/01/18 01:52:50;;;;;;;14.83;12.07;;;5.10;99.90;;;;;;4877271;29;20216;-88
2022/01/18 01:55:18;;;;;;;14.00;11.50;;;4.20;99.90;;;;;;4876237;29;20181;-89
2022/01/18 01:57:44;;;;;;;16.00;12.80;;;5.20;99.90;;;;;;4877399;29;20189;-85
2022/01/18 02:00:14;;;;;;;13.07;11.00;;;4.00;99.90;;;;;;4901121;29;20195;-89
2022/01/18 02:02:39;;;;;;;13.00;11.13;;;4.10;99.90;;;;;;4937053;29;20186;-87
2022/01/18 02:05:07;;;;;;;12.73;10.43;;;4.20;99.90;;;;;;4936301;29;20598;-86
2022/01/18 02:07:32;;;;;;;12.73;11.37;;;4.30;99.90;;;;;;4936492;29;20241;-89
2022/01/18 02:09:58;;;;;;;11.40;9.77;;;4.30;99.90;;;;;;4936648;29;20214;-86
2022/01/18 02:12:24;;;;;;;11.67;10.47;;;4.30;99.90;;;;;;4936612;29;20178;-86
2022/01/18 02:14:59;;;;;;;12.50;10.00;;;4.30;99.90;;;;;;4936591;29;20334;-89
2022/01/18 02:22:56;;;;;;;13.57;10.13;;;4.00;99.90;;;;;;5006615;28;20240;-88
2022/01/18 02:25:25;;;;;;;11.90;9.73;;;4.00;99.90;;;;;;4995704;28;20263;-88
2022/01/18 02:27:51;;;;;;;11.67;9.63;;;3.90;99.90;;;;;;4991019;28;20259;-88
2022/01/18 02:30:16;;;;;;;12.43;10.03;;;3.80;99.90;;;;;;4995738;28;20212;-87
2022/01/18 02:32:42;;;;;;;10.53;8.70;;;3.80;99.90;;;;;;4995723;28;20172;-90
2022/01/18 02:35:08;;;;;;;11.67;10.00;;;4.00;99.90;;;;;;4995394;28;20168;-87
2022/01/18 02:37:34;;;;;;;10.93;8.37;;;3.70;99.90;;;;;;4995475;28;20221;-86
2022/01/18 02:39:59;;;;;;;14.83;8.97;;;3.60;99.90;;;;;;4995034;28;20643;-87
2022/01/18 02:42:31;;;;;;;10.90;8.70;;;3.50;99.90;;;;;;4995694;28;20272;-88
2022/01/18 02:44:56;;;;;;;12.57;8.30;;;3.50;99.90;;;;;;4995258;28;20183;-88
2022/01/18 02:47:23;;;;;;;11.33;8.37;;;3.50;99.90;;;;;;4995643;28;20704;-86
2022/01/18 02:49:49;;;;;;;12.90;8.40;;;3.40;99.90;;;;;;4995291;28;20652;-88
2022/01/18 02:52:17;;;;;;;9.90;7.67;;;3.40;99.90;;;;;;4995022;28;20246;-90
2022/01/18 02:54:43;;;;;;;13.87;7.50;;;4.30;99.90;;;;;;4995621;28;20180;-88
2022/01/18 02:57:14;;;;;;;12.20;7.03;;;4.70;99.90;;;;;;4995460;28;20183;-90
2022/01/18 02:59:50;;;;;;;11.60;8.37;;;3.50;99.90;;;;;;4995624;28;20180;-88
2022/01/18 03:05:13;;;;;;;10.90;7.53;;;3.50;99.90;;;;;;5013231;28;20184;-88
2022/01/18 03:07:40;;;;;;;9.50;6.83;;;4.10;99.90;;;;;;4995230;28;20580;-89
2022/01/18 03:10:07;;;;;;;11.13;7.27;;;3.40;99.90;;;;;;5012930;28;20240;-87
2022/01/18 03:12:33;;;;;;;11.67;6.93;;;3.40;99.90;;;;;;4994854;28;20183;-87
2022/01/18 03:14:59;;;;;;;10.27;6.80;;;3.50;99.90;;;;;;4995251;28;20524;-88
2022/01/18 03:17:24;;;;;;;10.03;6.87;;;3.60;99.90;;;;;;4995267;28;20176;-90
2022/01/18 03:19:50;;;;;;;11.30;6.77;;;3.80;99.90;;;;;;5012018;28;20173;-87
2022/01/18 03:22:17;;;;;;;11.13;6.90;;;3.80;99.90;;;;;;4995199;28;20179;-87
2022/01/18 03:24:46;;;;;;;8.07;6.07;;;3.70;99.90;;;;;;4994347;28;20232;-88
2022/01/18 03:30:08;;;;;;;10.00;6.23;;;3.80;99.90;;;;;;4955099;29;20226;-87
2022/01/18 03:32:34;;;;;;;10.67;6.77;;;3.90;99.90;;;;;;4939735;29;20183;-88
2022/01/18 03:34:59;;;;;;;11.27;6.20;;;3.80;99.90;;;;;;4939114;29;20186;-89
2022/01/18 03:37:25;;;;;;;9.97;6.40;;;3.80;99.90;;;;;;4939352;29;20171;-86
2022/01/18 03:39:51;;;;;;;9.67;5.87;;;3.70;99.90;;;;;;4939134;29;20174;-89
2022/01/18 03:45:03;;;;;;;8.10;4.97;;;3.60;99.90;;;;;;4953613;28;20175;-89
2022/01/18 03:47:32;;;;;;;10.37;5.67;;;3.50;99.90;;;;;;4938703;29;20186;-88
2022/01/18 03:49:59;;;;;;;7.93;5.17;;;3.50;99.90;;;;;;4938793;29;20662;-89
2022/01/18 03:52:25;;;;;;;11.27;5.63;;;3.50;99.90;;;;;;4938881;29;20662;-88
2022/01/18 03:54:52;;;;;;;10.10;4.93;;;3.50;99.90;;;;;;4964455;28;20310;-87
2022/01/18 03:57:18;;;;;;;10.10;5.20;;;4.00;99.90;;;;;;4957619;28;20186;-88
2022/01/18 03:59:47;;;;;;;8.13;4.80;;;4.10;99.90;;;;;;4958365;28;20196;-87
2022/01/18 04:02:13;;;;;;;9.70;5.07;;;4.10;99.90;;;;;;4960764;28;20783;-89
2022/01/18 04:04:39;;;;;;;9.73;4.57;;;3.00;99.90;;;;;;4939095;29;20178;-88
2022/01/18 04:07:06;;;;;;;8.00;4.43;;;3.10;99.90;;;;;;4973619;28;20239;-90
2022/01/18 04:09:32;;;;;;;9.37;4.93;;;3.10;99.90;;;;;;4997700;28;20242;-86
2022/01/18 04:11:58;;;;;;;10.07;4.23;;;3.10;99.90;;;;;;4998011;28;20177;-87
2022/01/18 04:14:24;;;;;;;11.47;4.47;;;3.20;99.90;;;;;;4998040;28;20176;-88
2022/01/18 04:17:03;;;;;;;10.30;4.67;;;3.20;99.90;;;;;;4997790;28;20191;-92
2022/01/18 04:27:35;;;;;;;8.53;4.27;;;3.40;99.90;;;;;;5015659;28;20179;-88
2022/01/18 04:30:02;;;;;;;11.10;4.60;;;3.40;99.90;;;;;;5039692;23;20768;-62
2022/01/18 04:32:27;;;;;;;9.63;3.73;;;3.10;99.90;;;;;;5032700;28;20180;-63
2022/01/18 04:34:53;;;;;;;11.73;4.10;;;3.10;99.90;;;;;;5025164;28;20306;-63
2022/01/18 04:37:18;;;;;;;12.27;3.67;;;3.00;99.90;;;;;;5032898;28;20211;-62
2022/01/18 04:39:46;;;;;;;11.27;3.50;;;2.80;99.90;;;;;;5017790;28;20569;-62
2022/01/18 04:42:17;;;;;;;7.93;3.60;;;2.80;99.90;;;;;;5013609;28;20176;-60
2022/01/18 04:50:11;;;;;;;8.03;3.53;;;2.80;99.90;;;;;;5012586;28;20227;-64
2022/01/18 04:52:36;;;;;;;12.57;3.87;;;2.90;99.90;;;;;;5012274;28;20177;-64
2022/01/18 04:55:03;;;;;;;9.73;3.90;;;3.10;99.90;;;;;;5012773;28;20172;-62
2022/01/18 05:00:14;;;;;;;14.00;4.67;;;3.30;99.90;;;;;;5013749;28;20203;-63
2022/01/18 05:02:39;;;;;;;9.27;3.83;;;3.30;99.90;;;;;;5012528;28;20914;-63
2022/01/18 05:05:05;;;;;;;11.60;3.87;;;3.30;99.90;;;;;;5004870;28;20247;-63
2022/01/18 05:07:31;;;;;;;9.97;4.50;;;3.30;99.90;;;;;;5013116;28;20185;-64
2022/01/18 05:09:57;;;;;;;11.80;4.07;;;3.30;99.90;;;;;;5012804;28;20235;-64
2022/01/18 05:12:37;;;;;;;11.70;4.20;;;3.20;99.90;;;;;;5013350;28;20653;-64
2022/01/18 05:15:10;;;;;;;9.50;3.80;;;3.20;99.90;;;;;;5012881;28;20246;-63
2022/01/18 05:17:58;;;;;;;8.60;4.10;;;3.20;99.90;;;;;;5013450;28;20164;-64
2022/01/18 05:20:53;;;;;;;10.57;4.30;;;3.30;99.90;;;;;;5012509;28;20172;-64
2022/01/18 05:23:09;;;;;;;12.50;4.87;;;3.30;99.90;;;;;;5012305;28;20180;-64
2022/01/18 05:25:35;;;;;;;10.47;4.20;;;3.30;99.90;;;;;;5012524;28;20176;-64
2022/01/18 05:28:03;;;;;;;11.50;4.20;;;3.40;99.90;;;;;;5012796;28;20251;-61
2022/01/18 05:30:30;;;;;;;9.63;3.77;;;3.30;99.90;;;;;;5013271;28;20698;-61
2022/01/18 05:32:56;;;;;;;8.73;3.93;;;3.30;99.90;;;;;;5013138;28;20693;-62
2022/01/18 05:35:23;;;;;;;10.50;3.97;;;3.30;99.90;;;;;;5013078;28;20797;-61
2022/01/18 05:37:49;;;;;;;9.17;4.10;;;3.30;99.90;;;;;;5005462;28;20177;-62
2022/01/18 05:40:17;;;;;;;8.73;3.50;;;3.20;99.90;;;;;;5012539;28;20215;-64
2022/01/18 05:42:42;;;;;;;8.67;3.90;;;3.10;99.90;;;;;;5012768;28;20264;-64
2022/01/18 05:45:10;;;;;;;9.57;4.00;;;3.20;99.90;;;;;;5011579;28;20873;-62
2022/01/18 05:47:37;;;;;;;9.37;3.70;;;3.20;99.90;;;;;;5010422;28;20172;-62
2022/01/18 05:50:04;;;;;;;12.47;4.00;;;3.20;99.90;;;;;;5010376;28;20857;-63
2022/01/18 05:52:29;;;;;;;10.97;3.60;;;3.10;99.90;;;;;;5006906;28;20181;-63
2022/01/18 05:54:55;;;;;;;10.00;3.73;;;3.00;99.90;;;;;;4997848;28;20177;-64
2022/01/18 05:57:21;;;;;;;5.73;3.33;;;3.10;99.90;;;;;;5010415;28;20184;-62
2022/01/18 05:59:47;;;;;;;6.30;3.57;;;3.10;99.90;;;;;;5011332;28;20235;-64
2022/01/18 06:02:16;;;;;;;10.50;3.70;;;3.20;99.90;;;;;;5004152;28;20204;-60
2022/01/18 06:07:27;;;;;;;8.77;3.40;;;3.40;99.90;;;;;;5011070;28;20199;-63
2022/01/18 06:09:53;;;;;;;8.03;3.83;;;3.50;99.90;;;;;;5007922;28;20713;-62
2022/01/18 06:12:20;;;;;;;11.43;3.70;;;3.60;99.90;;;;;;5010880;28;20172;-64
2022/01/18 06:14:46;;;;;;;12.80;3.77;;;3.50;99.90;;;;;;5010909;28;20200;-63
2022/01/18 06:17:11;;;;;;;6.67;3.40;;;3.50;99.90;;;;;;5011764;28;20203;-63
2022/01/18 06:19:37;;;;;;;7.43;3.20;;;3.70;99.90;;;;;;5011135;28;20201;-64
2022/01/18 06:22:03;;;;;;;9.27;3.83;;;3.60;99.90;;;;;;5011073;28;20192;-63
2022/01/18 06:24:29;;;;;;;8.50;3.67;;;3.60;99.90;;;;;;5009580;28;20173;-61
2022/01/18 06:26:54;;;;;;;7.90;3.47;;;3.70;99.90;;;;;;5007344;28;20177;-62
2022/01/18 06:29:21;;;;;;;11.13;3.13;;;3.80;99.90;;;;;;5010096;28;20220;-63
2022/01/18 06:31:47;;;;;;;5.73;3.33;;;3.80;99.90;;;;;;5011099;28;20546;-63
2022/01/18 06:34:14;;;;;;;8.60;3.70;;;3.80;99.90;;;;;;5010859;28;20176;-62
2022/01/18 06:36:40;;;;;;;8.13;3.73;;;3.70;99.90;;;;;;5011309;28;20176;-65
2022/01/18 06:39:06;;;;;;;9.50;3.33;;;3.60;99.90;;;;;;5011132;28;20283;-63
2022/01/18 06:41:31;;;;;;;7.00;3.53;;;3.70;99.90;;;;;;5011816;28;20598;-61
2022/01/18 06:43:57;;;;;;;9.37;3.57;;;3.70;99.90;;;;;;5010841;28;20191;-59
2022/01/18 06:46:22;;;;;;;7.73;3.90;;;3.80;99.90;;;;;;5011274;28;20183;-64
2022/01/18 06:48:48;;;;;;;7.57;3.80;;;3.80;99.90;;;;;;5011765;28;20199;-62
2022/01/18 06:51:14;;;;;;;7.57;3.63;;;3.90;99.90;;;;;;5011611;28;20205;-62
2022/01/18 06:53:45;;;;;;;10.00;4.63;;;4.00;99.90;;;;;;5011845;28;20177;-62
2022/01/18 06:56:12;;;;;;;9.37;4.03;;;4.10;99.90;;;;;;5010945;28;20292;-64
2022/01/18 06:58:39;;;;;;;7.87;4.30;;;4.20;99.90;;;;;;5011428;28;20188;-64
2022/01/18 07:01:05;;;;;;;9.33;4.30;;;4.10;99.90;;;;;;5009922;28;20176;-63
2022/01/18 07:03:30;;;;;;;8.80;4.30;;;4.00;99.90;;;;;;5013976;28;20181;-61
2022/01/18 07:05:56;;;;;;;10.13;4.83;;;3.90;99.90;;;;;;5015606;28;20211;-62
2022/01/18 07:08:21;;;;;;;9.47;5.00;;;3.90;99.90;;;;;;5015337;28;20200;-63
2022/01/18 07:10:47;;;;;;;9.60;5.03;;;3.80;99.90;;;;;;5014235;28;20212;-64
2022/01/18 07:13:14;;;;;;;9.33;5.03;;;4.00;99.90;;;;;;5015206;28;20184;-64
2022/01/18 07:15:40;;;;;;;9.90;4.90;;;4.10;99.90;;;;;;5009554;28;20642;-64
2022/01/18 07:18:06;;;;;;;8.80;5.20;;;4.20;99.90;;;;;;5000831;28;20267;-63
2022/01/18 07:20:32;;;;;;;9.00;4.90;;;4.70;99.90;;;;;;5007352;28;20558;-63
2022/01/18 07:22:58;;;;;;;7.67;4.77;;;4.50;99.90;;;;;;5014617;28;20180;-63
2022/01/18 07:25:25;;;;;;;9.67;5.20;;;4.50;99.90;;;;;;5012510;28;20235;-63
2022/01/18 07:27:51;;;;;;;8.97;4.43;;;4.50;99.90;;;;;;5014460;28;20176;-63
2022/01/18 07:30:17;;;;;;;8.60;4.37;;;4.20;99.90;;;;;;5001400;28;20228;-64
2022/01/18 07:32:43;;;;;;;10.07;4.50;;;4.00;99.90;;;;;;5017915;28;20802;-62
2022/01/18 07:35:11;;;;;;;10.07;4.73;;;3.90;99.90;;;;;;5006484;28;20219;-63
2022/01/18 07:37:37;;;;;;;10.73;4.03;;;4.00;99.90;;;;;;4999744;28;20208;-62
2022/01/18 07:40:03;;;;;;;11.57;4.43;;;4.00;99.90;;;;;;4997077;28;20208;-62
2022/01/18 07:42:29;;;;;;;9.67;4.40;;;4.10;99.90;;;;;;5015100;28;20560;-62
2022/01/18 07:44:54;;;;;;;7.13;4.30;;;4.10;99.90;;;;;;5014824;28;20173;-63
2022/01/18 07:47:20;;;;;;;8.03;3.80;;;4.20;99.90;;;;;;5014743;28;20207;-63
2022/01/18 07:49:47;;;;;;;10.10;4.23;;;4.20;99.90;;;;;;5014581;28;20239;-62
2022/01/18 07:52:13;;;;;;;9.30;4.60;;;4.30;99.90;;;;;;5014724;28;20697;-63
2022/01/18 07:54:38;;;;;;;9.73;4.67;;;4.40;99.90;;;;;;5014706;28;20256;-61
2022/01/18 07:57:04;;;;;;;10.77;4.77;;;4.40;99.90;;;;;;5014757;28;20188;-59
2022/01/18 07:59:30;;;;;;;10.47;4.73;;;4.50;99.90;;;;;;5014775;28;20251;-62
2022/01/18 08:01:55;;;;;;;11.33;5.00;;;4.30;99.90;;;;;;5014813;28;20597;-61
2022/01/18 08:04:22;;;;;;;10.30;5.40;;;4.20;99.90;;;;;;5012925;28;20204;-62
2022/01/18 08:06:48;;;;;;;10.37;5.63;;;4.10;99.90;;;;;;5014783;28;20218;-62
2022/01/18 08:09:18;;;;;;;10.37;5.97;;;4.00;99.90;;;;;;5014203;28;20617;-62
2022/01/18 08:11:44;;;;;;;10.83;6.07;;;3.80;99.90;;;;;;5014667;28;20175;-62
2022/01/18 08:14:13;;;;;;;13.50;7.13;;;3.60;99.90;;;;;;5012195;28;20180;-62
2022/01/18 08:17:00;;;;;;;10.57;6.23;;;3.40;99.90;;;;;;5004431;28;20178;-61
2022/01/18 08:19:34;;;;;;;11.33;6.90;;;3.20;99.90;;;;;;5006022;28;20196;-61
2022/01/18 08:21:59;;;;;;;12.07;6.87;;;3.00;99.90;;;;;;5025080;28;20183;-62
2022/01/18 08:24:26;;;;;;;13.73;7.30;;;3.10;99.90;;;;;;5019731;28;20211;-61
2022/01/18 08:26:52;;;;;;;10.73;6.90;;;3.10;99.90;;;;;;5013128;28;20638;-59
2022/01/18 08:29:17;;;;;;;12.60;6.80;;;3.10;99.90;;;;;;5025620;28;20238;-59
2022/01/18 08:31:45;;;;;;;11.30;6.97;;;3.10;99.90;;;;;;5020490;28;20177;-61
2022/01/18 08:34:11;;;;;;;11.27;6.53;;;3.20;99.90;;;;;;5013306;28;20183;-60
2022/01/18 08:36:38;;;;;;;13.07;6.87;;;3.30;99.90;;;;;;5019330;28;20188;-59
2022/01/18 08:39:04;;;;;;;10.47;6.10;;;3.40;99.90;;;;;;5031797;28;20262;-61
2022/01/18 08:41:31;;;;;;;12.50;7.13;;;3.50;99.90;;;;;;5023131;28;20184;-59
2022/01/18 08:43:57;;;;;;;9.10;5.90;;;3.50;99.90;;;;;;5014010;28;20177;-60
2022/01/18 08:46:22;;;;;;;11.17;6.90;;;3.50;99.90;;;;;;5027352;28;20186;-58
2022/01/18 08:48:49;;;;;;;9.80;6.33;;;3.80;99.90;;;;;;5030634;28;20204;-61
2022/01/18 08:51:15;;;;;;;8.50;5.77;;;4.20;99.90;;;;;;5018638;28;20204;-59
2022/01/18 08:53:48;;;;;;;10.97;6.00;;;4.80;99.90;;;;;;5010147;28;20183;-59
2022/01/18 08:56:17;;;;;;;9.93;5.93;;;5.30;99.90;;;;;;5007146;28;20168;-58
2022/01/18 08:58:43;;;;;;;8.10;4.90;;;5.90;99.90;;;;;;5009285;28;20256;-59
2022/01/18 09:01:09;;;;;;;8.20;4.43;;;6.60;99.90;;;;;;5011930;28;20271;-62
2022/01/18 09:03:34;;;;;;;7.87;3.80;;;8.20;99.90;;;;;;5024690;28;20238;-61
2022/01/18 09:06:03;;;;;;;6.37;4.13;;;10.10;99.90;;;;;;5024246;28;20177;-62
2022/01/18 09:08:28;;;;;;;6.37;3.87;;;11.30;99.90;;;;;;5013023;28;20222;-61
2022/01/18 09:10:54;;;;;;;7.80;4.30;;;11.80;99.90;;;;;;5028921;28;20239;-59
2022/01/18 09:13:22;;;;;;;8.77;4.50;;;11.60;99.90;;;;;;5009916;28;20176;-59
2022/01/18 09:15:48;;;;;;;7.67;4.43;;;11.00;99.90;;;;;;5025774;28;20654;-61
2022/01/18 09:18:14;;;;;;;9.53;4.93;;;10.00;99.90;;;;;;5022015;28;20782;-60
2022/01/18 09:20:39;;;;;;;8.47;4.93;;;9.30;99.90;;;;;;5009108;28;20200;-61
2022/01/18 09:23:05;;;;;;;9.47;4.83;;;8.40;99.90;;;;;;5007776;28;20181;-58
2022/01/18 09:25:32;;;;;;;10.00;5.27;;;7.80;99.90;;;;;;5009444;28;20168;-58
2022/01/18 09:27:58;;;;;;;11.20;5.37;;;7.10;99.90;;;;;;5024858;28;20543;-59
2022/01/18 09:30:26;;;;;;;7.37;5.17;;;6.70;99.90;;;;;;5019249;28;20298;-57
2022/01/18 09:32:53;;;;;;;10.03;5.60;;;6.90;99.90;;;;;;5000413;28;20231;-58
2022/01/18 09:35:19;;;;;;;10.60;5.93;;;6.80;99.90;;;;;;5003192;28;20599;-59
2022/01/18 09:37:45;;;;;;;10.23;6.27;;;6.40;99.90;;;;;;4993407;28;20165;-59
2022/01/18 09:40:14;;;;;;;12.70;5.73;;;5.90;99.90;;;;;;4993379;28;20705;-58
2022/01/18 09:42:43;;;;;;;8.63;5.60;;;6.20;99.90;;;;;;4993206;28;20312;-58
2022/01/18 09:45:12;;;;;;;10.87;5.73;;;6.80;99.90;;;;;;4992920;28;20188;-58
2022/01/18 09:47:41;;;;;;;9.40;5.60;;;6.50;99.90;;;;;;4993108;28;20209;-59
2022/01/18 09:50:09;;;;;;;10.13;5.90;;;6.00;99.90;;;;;;4993040;28;20197;-58
2022/01/18 09:52:35;;;;;;;10.00;6.20;;;5.60;99.90;;;;;;4992940;28;20308;-59
2022/01/18 09:55:03;;;;;;;9.57;6.10;;;5.30;99.90;;;;;;4993017;28;20174;-60
2022/01/18 09:57:30;;;;;;;10.60;5.97;;;5.00;99.90;;;;;;4992734;28;20268;-59
2022/01/18 09:59:56;;;;;;;10.63;5.60;;;4.70;99.90;;;;;;4993115;28;20303;-61
2022/01/18 10:02:22;;;;;;;9.50;5.50;;;4.50;99.90;;;;;;4993168;28;20173;-58
2022/01/18 10:04:49;;;;;;;9.90;5.60;;;4.30;99.90;;;;;;4992645;28;20177;-57
2022/01/18 10:07:15;;;;;;;12.97;5.00;;;4.30;99.90;;;;;;4993061;28;20165;-59
2022/01/18 10:09:41;;;;;;;8.90;5.10;;;4.40;99.90;;;;;;4992491;28;20704;-57
2022/01/18 10:12:10;;;;;;;13.00;5.40;;;4.40;99.90;;;;;;4993016;28;20161;-60
2022/01/18 10:14:39;;;;;;;10.57;5.10;;;4.40;99.90;;;;;;4992449;28;20694;-60
2022/01/18 10:17:06;;;;;;;8.73;4.57;;;4.60;99.90;;;;;;4992883;28;20176;-60
2022/01/18 10:19:41;;;;;;;9.47;4.93;;;4.90;99.90;;;;;;4992643;28;20221;-59
2022/01/18 10:22:20;;;;;;;7.50;4.40;;;5.10;99.90;;;;;;4992894;28;20164;-59
2022/01/18 10:24:47;;;;;;;10.90;4.27;;;5.10;99.90;;;;;;4992470;28;20165;-60
2022/01/18 10:27:13;;;;;;;9.87;4.50;;;5.00;99.90;;;;;;4992623;28;20175;-60
2022/01/18 10:30:04;;;;;;;10.93;4.50;;;5.20;99.90;;;;;;4992288;28;20236;-62
2022/01/18 10:32:37;;;;;;;10.67;4.43;;;5.80;99.90;;;;;;5005734;28;20536;-61
2022/01/18 10:35:08;;;;;;;6.60;3.80;;;6.10;99.90;;;;;;5017203;28;20251;-60
2022/01/18 10:40:08;;;;;;;6.43;3.30;;;6.60;99.90;;;;;;5006904;28;20220;-59
2022/01/18 10:42:50;;;;;;;8.67;3.30;;;6.40;99.90;;;;;;5007466;28;20173;-61
2022/01/18 10:45:24;;;;;;;6.60;3.50;;;7.00;99.90;;;;;;5000008;28;20626;-61
2022/01/18 10:48:00;;;;;;;6.30;3.40;;;9.00;99.90;;;;;;5006786;28;20585;-58
2022/01/18 10:50:30;;;;;;;6.97;3.30;;;12.30;99.90;;;;;;4990142;28;20268;-60
2022/01/18 10:53:18;;;;;;;6.83;3.33;;;13.80;99.90;;;;;;4970349;28;20199;-57
2022/01/18 10:55:46;;;;;;;7.00;3.30;;;14.30;99.90;;;;;;4991033;28;20231;-56
2022/01/18 10:58:14;;;;;;;8.37;3.50;;;14.00;99.00;;;;;;4991580;28;20207;-59
2022/01/18 11:00:40;;;;;;;4.37;2.80;;;14.00;99.90;;;;;;4991950;28;20649;-59
2022/01/18 11:03:07;;;;;;;5.77;2.90;;;15.80;99.10;;;;;;4991760;28;20694;-56
2022/01/18 11:05:35;;;;;;;3.80;2.60;;;17.90;96.30;;;;;;4991499;28;20640;-60
2022/01/18 11:08:04;;;;;;;5.80;3.03;;;18.90;93.30;;;;;;4991357;28;20241;-61
2022/01/18 11:10:41;;;;;;;4.77;2.60;;;18.60;92.20;;;;;;4991563;28;20193;-61
2022/01/18 11:13:17;;;;;;;8.43;2.97;;;16.80;92.80;;;;;;4991706;28;20169;-62
2022/01/18 11:15:46;;;;;;;7.53;3.00;;;15.30;93.40;;;;;;4991550;28;20182;-60
2022/01/18 11:18:28;;;;;;;5.60;2.60;;;13.50;92.90;;;;;;4989870;28;20197;-59
2022/01/18 11:20:54;;;;;;;6.17;2.97;;;12.20;95.20;;;;;;4990267;28;20184;-55
2022/01/18 11:23:22;;;;;;;7.47;2.77;;;11.30;96.80;;;;;;4991770;28;20178;-57
2022/01/18 11:25:50;;;;;;;8.10;2.73;;;10.30;97.60;;;;;;4990425;28;20182;-59
2022/01/18 11:28:16;;;;;;;7.97;3.03;;;9.40;99.90;;;;;;4991901;28;20283;-58
2022/01/18 11:30:45;;;;;;;7.10;2.47;;;9.00;99.90;;;;;;4992093;28;20605;-56
2022/01/18 11:33:13;;;;;;;6.23;2.60;;;9.20;99.90;;;;;;4974499;28;20590;-56
2022/01/18 11:35:54;;;;;;;6.20;2.07;;;9.80;99.90;;;;;;4990661;28;20549;-57
2022/01/18 11:38:39;;;;;;;6.30;2.67;;;9.90;99.90;;;;;;4957909;28;20307;-62
2022/01/18 11:41:06;;;;;;;8.23;3.37;;;10.10;99.90;;;;;;4973498;28;20696;-62
2022/01/18 11:43:37;;;;;;;7.07;3.03;;;10.40;98.80;;;;;;4991935;28;20166;-57
2022/01/18 11:46:31;;;;;;;6.43;2.50;;;9.60;99.90;;;;;;4991545;28;20216;-60
2022/01/18 11:49:21;;;;;;;8.07;2.80;;;8.90;99.90;;;;;;4992529;28;20197;-59
2022/01/18 11:51:56;;;;;;;6.23;2.53;;;9.20;99.90;;;;;;4995577;28;20177;-60
2022/01/18 11:57:23;;;;;;;6.70;2.63;;;8.50;99.90;;;;;;4995795;28;20180;-55
2022/01/18 12:00:11;;;;;;;10.30;3.17;;;7.70;99.90;;;;;;4995270;28;20271;-59
2022/01/18 12:02:43;;;;;;;6.57;3.00;;;7.30;99.90;;;;;;4994685;28;20224;-58
2022/01/18 12:05:14;;;;;;;7.57;3.03;;;7.30;99.90;;;;;;4994739;28;20538;-59
2022/01/18 12:07:41;;;;;;;8.27;2.57;;;7.40;99.90;;;;;;4995071;28;20176;-59
2022/01/18 12:10:08;;;;;;;6.57;2.37;;;7.60;99.90;;;;;;4994904;28;20196;-60
2022/01/18 12:12:50;;;;;;;8.13;2.23;;;7.50;99.90;;;;;;4995291;28;20204;-60
2022/01/18 12:15:15;;;;;;;7.60;2.30;;;7.30;99.90;;;;;;4994737;28;20173;-60
2022/01/18 12:17:48;;;;;;;7.37;2.43;;;7.30;99.90;;;;;;4994910;28;20235;-59
2022/01/18 12:20:35;;;;;;;6.33;2.23;;;7.40;99.90;;;;;;4994869;28;20185;-59
2022/01/18 12:23:30;;;;;;;6.43;2.33;;;7.50;99.90;;;;;;4995052;28;20273;-57
2022/01/18 12:26:16;;;;;;;7.57;2.40;;;7.50;99.90;;;;;;4981778;28;20192;-57
2022/01/18 12:34:28;;;;;;;6.30;2.10;;;7.80;99.90;;;;;;4994502;28;20183;-59
2022/01/18 12:37:07;;;;;;;5.37;2.33;;;9.30;99.90;;;;;;4994526;28;20201;-63
2022/01/18 12:39:54;;;;;;;6.70;2.37;;;11.50;98.80;;;;;;4994398;28;20220;-59
2022/01/18 12:45:14;;;;;;;4.07;1.97;;;14.70;95.70;;;;;;4994157;28;20235;-60
2022/01/18 12:47:49;;;;;;;6.40;2.40;;;15.40;93.80;;;;;;4994362;28;20542;-60
2022/01/18 12:50:19;;;;;;;4.67;2.27;;;15.30;90.50;;;;;;4994544;28;20224;-59
2022/01/18 12:52:48;;;;;;;6.67;2.37;;;14.10;92.50;;;;;;4994479;28;20221;-59
2022/01/18 12:55:44;;;;;;;5.27;1.83;;;13.20;92.90;;;;;;4994116;28;20185;-60
2022/01/18 12:58:34;;;;;;;6.13;1.80;;;12.50;93.90;;;;;;4994204;28;20749;-62
2022/01/18 13:01:11;;;;;;;4.33;2.10;;;12.10;93.80;;;;;;4993656;28;20194;-54
2022/01/18 13:03:39;;;;;;;4.80;2.23;;;11.70;95.10;;;;;;4994042;28;20261;-61
2022/01/18 13:06:16;;;;;;;5.97;2.40;;;11.50;95.30;;;;;;4993981;28;20230;-57
2022/01/18 13:08:59;;;;;;;7.77;2.43;;;11.10;94.90;;;;;;4993998;28;20193;-55
2022/01/18 13:11:28;;;;;;;5.63;1.90;;;10.40;95.70;;;;;;4994035;28;20201;-55
2022/01/18 13:14:08;;;;;;;4.93;2.00;;;9.70;98.50;;;;;;4993664;28;20204;-57
2022/01/18 13:29:45;;;;;;;5.87;2.17;;;9.10;98.80;;;;;;4993620;28;20745;-62
2022/01/18 13:32:18;;;;;;;5.17;1.90;;;9.10;99.90;;;;;;4993832;28;20172;-55
2022/01/18 13:34:49;;;;;;;7.53;2.20;;;9.00;99.90;;;;;;4993388;28;20311;-57
2022/01/18 13:37:22;;;;;;;5.27;2.17;;;8.90;99.90;;;;;;4993694;28;20183;-60
2022/01/18 13:39:50;;;;;;;3.90;1.93;;;8.60;99.90;;;;;;4993431;28;20559;-57
2022/01/18 13:42:40;;;;;;;9.10;2.17;;;8.30;99.90;;;;;;4993030;28;20362;-54
2022/01/18 13:45:24;;;;;;;4.90;1.87;;;8.10;99.90;;;;;;4979301;28;20682;-56
2022/01/18 13:47:59;;;;;;;4.93;1.80;;;8.10;99.90;;;;;;4992997;28;20177;-60
2022/01/18 13:50:28;;;;;;;5.17;1.70;;;8.20;99.90;;;;;;4993189;28;20239;-59
2022/01/18 13:53:01;;;;;;;5.43;1.80;;;8.20;99.90;;;;;;4993166;28;20169;-59
2022/01/18 13:55:29;;;;;;;4.17;1.83;;;8.30;99.90;;;;;;4992350;28;20191;-60
2022/01/18 13:57:57;;;;;;;6.60;2.50;;;8.20;99.90;;;;;;4992043;28;20185;-59
2022/01/18 14:00:24;;;;;;;7.80;2.90;;;8.20;99.90;;;;;;4993278;28;20277;-54
2022/01/18 14:02:50;;;;;;;6.17;2.33;;;7.80;99.90;;;;;;4993017;28;20546;-59
2022/01/18 14:05:19;;;;;;;5.27;2.57;;;7.50;99.90;;;;;;4992603;28;20260;-59
2022/01/18 14:07:44;;;;;;;11.07;2.83;;;7.10;99.90;;;;;;4992617;28;20169;-56
2022/01/18 14:10:10;;;;;;;5.03;2.03;;;6.70;99.90;;;;;;4992864;28;20251;-60
2022/01/18 14:12:36;;;;;;;7.53;2.30;;;6.60;99.90;;;;;;4975551;28;20196;-57
2022/01/18 14:15:01;;;;;;;6.20;2.30;;;6.50;99.90;;;;;;4992502;28;20165;-53
2022/01/18 14:17:27;;;;;;;7.93;2.60;;;6.40;99.90;;;;;;4992922;28;20177;-58
2022/01/18 14:20:12;;;;;;;7.73;2.30;;;6.40;99.90;;;;;;4992505;28;20208;-57
2022/01/18 14:22:41;;;;;;;7.33;2.40;;;6.50;99.90;;;;;;4992911;28;20260;-55
2022/01/18 14:25:08;;;;;;;6.13;2.10;;;6.50;99.90;;;;;;4992026;28;20178;-58
2022/01/18 14:27:43;;;;;;;9.83;3.10;;;6.60;99.90;;;;;;4992204;28;20173;-52
2022/01/18 14:30:19;;;;;;;6.60;2.27;;;6.60;99.90;;;;;;4992352;28;20185;-57
2022/01/18 14:32:48;;;;;;;7.60;2.73;;;6.50;99.90;;;;;;4992830;28;20181;-58
2022/01/18 14:35:20;;;;;;;11.70;3.00;;;6.50;99.90;;;;;;4958753;28;20173;-55